Time;durP1;ratioP1;P1;durP2;ratioP2;P2;SDS_P1;SDS_P2;PMS_P1;PMS_P2;Temp;Humidity;BMP_temperature;BMP_pressure;BME280_temperature;BME280_humidity;BME280_pressure;Samples;Min_cycle;Max_cycle;Signal;HPM_P1;HPM_P2
2021/01/30 00:02:08;;;;;;;38.02;16.73;;;;;;;-0.99;83.25;99044.54;1591125;88;21665;-78
2021/01/30 00:04:36;;;;;;;34.40;18.05;;;;;;;-1.00;83.10;99033.55;1591188;89;21242;-78
2021/01/30 00:07:04;;;;;;;37.30;18.62;;;;;;;-0.98;83.17;99039.05;1593266;89;21280;-78
2021/01/30 00:09:30;;;;;;;36.53;19.32;;;;;;;-1.00;83.08;99029.73;1593056;89;21141;-78
2021/01/30 00:12:00;;;;;;;33.10;17.10;;;;;;;-1.00;83.17;99033.96;1565895;90;21291;-78
2021/01/30 00:14:30;;;;;;;37.80;19.07;;;;;;;-1.01;83.14;99027.20;1538783;92;21614;-78
2021/01/30 00:16:57;;;;;;;43.05;18.57;;;;;;;-1.03;83.18;99027.61;1538535;92;21548;-78
2021/01/30 00:19:23;;;;;;;;;;;;;;;-1.05;83.15;99031.44;1557389;91;21161;-78
2021/01/30 00:21:56;;;;;;;39.83;18.30;;;;;;;-1.06;83.15;99035.23;1546131;91;20281;-78
2021/01/30 00:24:24;;;;;;;39.65;18.82;;;;;;;-1.07;83.21;99029.31;1559679;91;21245;-78
2021/01/30 00:26:56;;;;;;;35.00;18.98;;;;;;;-1.07;83.22;99023.39;1569843;90;21198;-78
2021/01/30 00:29:25;;;;;;;38.33;18.00;;;;;;;-1.07;83.27;99023.39;1555059;90;21166;-78
2021/01/30 00:31:51;;;;;;;35.10;17.87;;;;;;;-1.07;83.31;99022.97;1562894;91;21592;-78
2021/01/30 00:34:21;;;;;;;34.23;17.42;;;;;;;-1.05;83.27;99023.83;1571955;89;21166;-78
2021/01/30 00:36:50;;;;;;;29.55;16.82;;;;;;;-1.04;83.38;99036.91;1558907;90;22285;-78
2021/01/30 00:39:17;;;;;;;35.08;19.07;;;;;;;-1.04;83.23;99033.55;1573608;90;21189;-78
2021/01/30 00:41:43;;;;;;;34.53;19.60;;;;;;;-1.05;83.38;99037.78;1570431;91;21198;-78
2021/01/30 00:44:09;;;;;;;;;;;;;;;-1.03;83.34;99040.29;1562503;90;21199;-78
2021/01/30 00:46:36;;;;;;;38.28;18.48;;;;;;;-1.02;83.40;99044.52;1571355;90;20303;-78
2021/01/30 00:49:03;;;;;;;36.88;17.50;;;;;;;-1.01;83.37;99039.88;1566689;90;21225;-78
2021/01/30 00:51:29;;;;;;;38.98;19.10;;;;;;;-1.02;83.37;99031.84;1535409;91;21253;-78
2021/01/30 00:53:56;;;;;;;37.60;18.90;;;;;;;-1.02;83.37;99035.64;1562194;91;21243;-78
2021/01/30 00:56:22;;;;;;;35.30;19.12;;;;;;;-1.01;83.45;99035.66;1566827;90;21254;-78
2021/01/30 00:58:48;;;;;;;38.67;18.80;;;;;;;-0.97;83.49;99034.40;1552819;91;21283;-78
2021/01/30 01:01:15;;;;;;;33.28;17.67;;;;;;;-0.97;83.46;99035.67;1563294;89;21246;-78
2021/01/30 01:03:41;;;;;;;37.35;18.35;;;;;;;-1.07;83.38;99014.52;1568267;91;21213;-78
2021/01/30 01:06:07;;;;;;;39.08;20.12;;;;;;;-1.01;83.36;99029.31;1593541;89;28366;-78
2021/01/30 01:08:34;;;;;;;39.08;18.17;;;;;;;-0.99;83.47;99025.52;1585582;88;21158;-79
2021/01/30 01:11:00;;;;;;;;;;;;;;;-1.00;83.38;99018.33;1592233;89;21205;-78
2021/01/30 01:13:28;;;;;;;38.10;17.60;;;;;;;-0.99;83.43;99025.52;1590682;89;21258;-78
2021/01/30 01:15:56;;;;;;;35.35;19.35;;;;;;;-0.99;83.47;99024.25;1593667;88;21241;-78
2021/01/30 01:18:22;;;;;;;39.55;20.08;;;;;;;-0.98;83.47;99022.14;1597177;89;21228;-78
2021/01/30 01:20:48;;;;;;;35.92;18.07;;;;;;;-0.97;83.44;99026.79;1561829;91;21251;-78
2021/01/30 01:23:15;;;;;;;35.25;18.10;;;;;;;-0.97;83.40;99021.72;1576717;89;21263;-78
2021/01/30 01:25:41;;;;;;;37.67;19.67;;;;;;;-0.99;83.36;99021.70;1588137;89;21709;-78
2021/01/30 01:28:07;;;;;;;31.07;18.80;;;;;;;-0.99;83.38;99019.17;1586135;89;29349;-78
2021/01/30 01:30:34;;;;;;;33.78;19.70;;;;;;;-1.00;83.30;99017.05;1585836;88;21618;-78
2021/01/30 01:33:01;;;;;;;37.90;20.43;;;;;;;-1.02;83.34;99013.66;1586442;88;21674;-78
2021/01/30 01:35:31;;;;;;;35.33;19.98;;;;;;;-1.01;83.45;99011.55;1585648;89;21270;-78
2021/01/30 01:37:59;;;;;;;36.63;20.05;;;;;;;-1.00;83.52;99010.71;1587449;89;21539;-78
2021/01/30 01:40:30;;;;;;;38.35;20.60;;;;;;;-1.11;83.48;98984.91;1585429;89;21250;-78
2021/01/30 01:43:04;;;;;;;34.80;19.32;;;;;;;-0.97;83.50;99001.42;1584581;88;21261;-78
2021/01/30 01:45:30;;;;;;;36.73;20.45;;;;;;;-0.97;83.50;99003.53;1588189;89;21630;-78
2021/01/30 01:48:00;;;;;;;37.63;20.25;;;;;;;-0.97;83.52;98998.47;1591767;88;21786;-78
2021/01/30 01:50:42;;;;;;;34.13;18.50;;;;;;;-0.96;83.53;99003.97;1594819;89;21877;-78
2021/01/30 01:53:17;;;;;;;31.33;18.30;;;;;;;-0.96;83.52;98995.09;1589040;89;21242;-78
2021/01/30 01:55:48;;;;;;;34.58;18.35;;;;;;;-0.96;83.54;98999.31;1591295;88;21242;-78
2021/01/30 01:58:17;;;;;;;34.73;18.32;;;;;;;-0.97;83.53;98990.85;1584140;89;21298;-78
2021/01/30 02:00:47;;;;;;;33.80;17.80;;;;;;;-0.96;83.55;98991.28;1597063;89;21674;-78
2021/01/30 02:03:13;;;;;;;35.73;18.80;;;;;;;-0.96;83.56;98993.81;1583649;89;21659;-78
2021/01/30 02:05:40;;;;;;;;;;;;;;;-0.95;83.58;98999.73;1597740;89;21579;-78
2021/01/30 02:08:10;;;;;;;35.50;16.85;;;;;;;-0.95;83.56;98996.78;1598560;89;21017;-78
2021/01/30 02:10:41;;;;;;;33.48;18.10;;;;;;;-0.94;83.58;98992.55;1586776;89;21473;-78
2021/01/30 02:13:12;;;;;;;34.35;17.55;;;;;;;-0.95;83.56;98999.32;1583600;89;21595;-78
2021/01/30 02:15:42;;;;;;;41.42;22.50;;;;;;;-0.96;83.48;98999.31;1585118;89;21253;-78
2021/01/30 02:18:31;;;;;;;33.40;20.50;;;;;;;-0.97;83.53;99000.16;1568219;89;21202;-78
2021/01/30 02:21:50;;;;;;;39.27;19.23;;;;;;;-0.98;83.45;98999.73;1586443;89;21177;-78
2021/01/30 02:24:54;;;;;;;38.83;20.90;;;;;;;-1.03;83.44;98993.36;1583966;89;21178;-78
2021/01/30 02:28:02;;;;;;;34.78;19.62;;;;;;;-1.06;83.60;99002.26;1585513;89;21573;-78
2021/01/30 02:30:51;;;;;;;35.13;17.30;;;;;;;-1.05;83.53;99001.42;1561508;91;21192;-78
2021/01/30 02:34:02;;;;;;;31.37;18.10;;;;;;;-1.13;83.35;98999.27;1587982;89;21162;-78
2021/01/30 02:36:52;;;;;;;32.25;18.27;;;;;;;-1.14;83.60;99000.95;1556410;90;21195;-78
2021/01/30 02:39:24;;;;;;;29.35;18.25;;;;;;;-1.11;83.67;98995.05;1539951;90;21611;-78
2021/01/30 02:41:58;;;;;;;34.65;19.32;;;;;;;-1.09;83.76;98998.44;1555874;90;21147;-78
2021/01/30 02:44:27;;;;;;;33.18;19.80;;;;;;;-1.06;83.74;98998.03;1557820;90;21899;-78
2021/01/30 02:46:56;;;;;;;36.20;19.50;;;;;;;-1.04;83.72;98991.25;1553993;90;21292;-78
2021/01/30 02:49:36;;;;;;;37.70;21.27;;;;;;;-1.03;83.71;98998.44;1563478;90;21173;-78
2021/01/30 02:52:13;;;;;;;35.50;18.65;;;;;;;-1.02;83.73;98994.64;1547238;90;178624;-78
2021/01/30 02:54:40;;;;;;;36.85;20.12;;;;;;;-0.98;83.75;98995.92;1540184;91;21619;-78
2021/01/30 02:57:13;;;;;;;40.55;22.62;;;;;;;-0.98;83.69;98993.39;1544541;91;22203;-78
2021/01/30 02:59:44;;;;;;;31.33;17.95;;;;;;;-0.98;83.69;98993.39;1547155;91;21249;-78
2021/01/30 03:02:11;;;;;;;32.98;18.85;;;;;;;-0.98;83.65;98992.97;1539373;91;21234;-78
2021/01/30 03:04:38;;;;;;;31.42;18.67;;;;;;;-0.99;83.66;98991.27;1548593;91;21280;-78
2021/01/30 03:07:33;;;;;;;28.73;17.35;;;;;;;-0.97;83.69;98988.73;1560851;91;21259;-78
2021/01/30 03:10:11;;;;;;;26.30;16.35;;;;;;;-0.96;83.70;98985.36;1544508;91;21730;-77
2021/01/30 03:13:13;;;;;;;32.88;18.45;;;;;;;-0.96;83.69;98990.44;1545009;91;21264;-77
2021/01/30 03:15:53;;;;;;;30.15;16.20;;;;;;;-0.96;83.77;98986.20;1519560;94;21261;-78
2021/01/30 03:18:24;;;;;;;31.85;17.62;;;;;;;-0.96;83.70;98984.94;1531719;91;21350;-78
2021/01/30 03:20:51;;;;;;;31.05;18.37;;;;;;;-0.96;83.76;98988.75;1577805;89;21636;-78
2021/01/30 03:23:20;;;;;;;27.40;17.55;;;;;;;-0.94;83.75;98979.87;1556451;91;21795;-78
2021/01/30 03:25:47;;;;;;;32.00;18.42;;;;;;;-0.98;83.62;98984.51;1556000;91;21255;-78
2021/01/30 03:28:16;;;;;;;23.80;15.98;;;;;;;-0.98;83.69;98982.81;1576900;89;21235;-78
2021/01/30 03:30:43;;;;;;;30.40;16.67;;;;;;;-0.98;83.63;98974.36;1577509;89;21254;-78
2021/01/30 03:33:10;;;;;;;26.62;16.93;;;;;;;-1.05;83.53;98974.37;1577974;89;21255;-78
2021/01/30 03:35:37;;;;;;;26.95;16.20;;;;;;;-1.05;83.69;98971.83;1586015;89;21782;-78
2021/01/30 03:38:04;;;;;;;29.00;16.55;;;;;;;-1.05;83.73;98970.98;1579820;89;21225;-78
2021/01/30 03:40:31;;;;;;;27.27;16.85;;;;;;;-1.04;83.74;98969.69;1547583;91;21792;-78
2021/01/30 03:42:57;;;;;;;27.40;15.70;;;;;;;-1.03;83.74;98970.53;1550235;91;21243;-78
2021/01/30 03:45:28;;;;;;;22.67;15.80;;;;;;;-1.05;83.68;98970.98;1551554;91;21269;-78
2021/01/30 03:47:54;;;;;;;23.38;15.43;;;;;;;-1.07;83.75;98972.24;1553630;91;21959;-78
2021/01/30 03:50:22;;;;;;;27.00;16.10;;;;;;;-1.09;83.65;98970.13;1561477;91;21267;-78
2021/01/30 03:52:48;;;;;;;25.25;16.32;;;;;;;-1.12;83.67;98968.84;1552279;91;21221;-78
2021/01/30 03:55:15;;;;;;;23.42;15.43;;;;;;;-1.11;83.74;98966.73;1546552;91;27808;-78
2021/01/30 03:57:42;;;;;;;28.05;16.77;;;;;;;-1.10;83.78;98969.70;1583010;89;21215;-78
2021/01/30 04:00:11;;;;;;;;;;;;;;;-1.08;83.81;98973.50;1579506;89;21254;-78
2021/01/30 04:02:40;;;;;;;28.02;16.35;;;;;;;-1.08;83.84;98961.67;1591215;88;20393;-78
2021/01/30 04:05:09;;;;;;;24.72;16.42;;;;;;;-1.16;83.81;98943.04;1584425;89;21639;-78
2021/01/30 04:07:36;;;;;;;26.57;15.95;;;;;;;-1.06;83.98;98963.80;1579494;89;21249;-78
2021/01/30 04:10:06;;;;;;;25.50;16.75;;;;;;;-1.05;83.80;98962.11;1583908;89;21261;-78
2021/01/30 04:12:33;;;;;;;27.42;17.32;;;;;;;-1.04;83.86;98967.16;1581578;89;22172;-78
2021/01/30 04:15:00;;;;;;;;;;;;;;;-1.05;83.82;98965.91;1586244;89;21126;-78
2021/01/30 04:17:27;;;;;;;25.68;15.93;;;;;;;-1.04;83.88;98971.41;1577441;89;20342;-78
2021/01/30 04:19:53;;;;;;;;;;;;;;;-1.05;83.87;98968.45;1589050;89;21133;-78
2021/01/30 04:22:19;;;;;;;24.72;15.10;;;;;;;-1.06;83.85;98969.29;1585227;89;20270;-79
2021/01/30 04:24:45;;;;;;;26.25;16.50;;;;;;;-1.06;83.79;98971.83;1578918;90;21176;-78
2021/01/30 04:27:15;;;;;;;26.02;17.40;;;;;;;-1.10;83.80;98962.51;1580790;89;21138;-78
2021/01/30 04:29:44;;;;;;;26.57;17.12;;;;;;;-1.07;83.94;98962.52;1578945;89;21150;-78
2021/01/30 04:32:11;;;;;;;27.55;16.77;;;;;;;-1.09;83.77;98958.71;1586317;89;21231;-78
2021/01/30 04:34:37;;;;;;;35.35;19.80;;;;;;;-1.15;83.78;98958.68;1583293;89;21553;-78
2021/01/30 04:37:04;;;;;;;28.05;16.55;;;;;;;-1.14;83.84;98973.48;1589752;89;22144;-78
2021/01/30 04:39:30;;;;;;;30.45;16.12;;;;;;;-1.12;83.92;98974.33;1585623;89;21252;-78
2021/01/30 04:42:10;;;;;;;28.42;16.70;;;;;;;-1.15;83.82;98967.56;1583312;89;21237;-78
2021/01/30 04:45:05;;;;;;;28.95;17.12;;;;;;;-1.20;83.75;98963.30;1585154;89;21207;-78
2021/01/30 04:47:40;;;;;;;29.27;17.90;;;;;;;-1.21;83.82;98957.80;1658172;85;21608;-77
2021/01/30 04:50:20;;;;;;;27.87;17.12;;;;;;;-1.24;83.75;98961.59;1646868;85;22258;-77
2021/01/30 04:53:18;;;;;;;32.30;18.90;;;;;;;-1.27;83.84;98966.23;1621550;85;21218;-78
2021/01/30 04:56:07;;;;;;;30.25;17.23;;;;;;;-1.27;83.96;98964.97;1645135;85;21220;-77
2021/01/30 04:58:53;;;;;;;26.00;15.93;;;;;;;-1.26;83.96;98974.27;1656646;84;21540;-78
2021/01/30 05:01:37;;;;;;;32.48;19.07;;;;;;;-1.28;83.87;98971.30;1658092;85;21460;-77
2021/01/30 05:04:12;;;;;;;33.38;19.07;;;;;;;-1.36;83.83;98972.52;1658231;85;21695;-77
2021/01/30 05:07:02;;;;;;;25.92;16.73;;;;;;;-1.40;83.88;98970.39;1656051;85;21197;-78
2021/01/30 05:09:42;;;;;;;32.15;19.37;;;;;;;-1.41;83.90;98964.89;1642915;85;21242;-78
2021/01/30 05:12:59;;;;;;;31.42;19.77;;;;;;;-1.43;83.92;98974.17;1664091;84;21199;-78
2021/01/30 05:15:33;;;;;;;34.48;19.42;;;;;;;-1.43;83.97;98969.53;1650427;85;21195;-78
2021/01/30 05:18:04;;;;;;;33.67;19.90;;;;;;;-1.46;83.91;98970.36;1603621;87;21911;-78
2021/01/30 05:20:38;;;;;;;29.27;18.40;;;;;;;-1.49;83.90;98977.09;1612240;87;21266;-78
2021/01/30 05:23:07;;;;;;;36.55;21.05;;;;;;;-1.56;83.88;98980.01;1604839;87;21266;-78
2021/01/30 05:25:34;;;;;;;36.08;19.85;;;;;;;-1.59;84.13;98982.98;1595454;88;21808;-76
2021/01/30 05:28:21;;;;;;;;;;;;;;;-1.59;84.04;98983.82;1607009;88;21765;-76
2021/01/30 05:31:11;;;;;;;31.73;17.70;;;;;;;-1.60;84.06;98977.06;1609088;88;21159;-76
2021/01/30 05:33:42;;;;;;;33.35;18.95;;;;;;;-1.65;84.02;98969.84;1612574;86;21285;-77
2021/01/30 05:36:23;;;;;;;33.25;20.37;;;;;;;-1.55;84.11;98982.13;1619815;87;21543;-77
2021/01/30 05:39:29;;;;;;;32.67;18.42;;;;;;;-1.66;84.08;98970.69;1612060;87;21287;-77
2021/01/30 05:42:26;;;;;;;34.20;19.95;;;;;;;-1.63;84.10;98978.31;1602089;87;21265;-77
2021/01/30 05:45:04;;;;;;;36.30;20.20;;;;;;;-1.57;84.17;99000.31;1625970;86;21868;-77
2021/01/30 05:47:32;;;;;;;38.28;22.20;;;;;;;-1.55;84.17;99006.20;1606406;87;21244;-77
2021/01/30 05:50:16;;;;;;;33.45;22.15;;;;;;;-1.67;84.12;98982.92;1645716;85;21189;-77
2021/01/30 05:52:43;;;;;;;39.03;21.52;;;;;;;-1.56;84.23;99006.62;1650662;85;21189;-77
2021/01/30 05:55:35;;;;;;;37.65;20.70;;;;;;;-1.50;84.31;99007.08;1653772;85;21181;-77
2021/01/30 05:58:12;;;;;;;36.50;20.70;;;;;;;-1.48;84.26;99004.14;1653882;85;21237;-77
2021/01/30 06:00:39;;;;;;;35.23;20.95;;;;;;;-1.45;84.35;99002.47;1653493;85;21646;-77
2021/01/30 06:03:10;;;;;;;37.48;21.52;;;;;;;-1.48;84.25;99003.72;1654116;85;21205;-77
2021/01/30 06:05:45;;;;;;;35.15;20.10;;;;;;;-1.39;84.35;99013.91;1653810;85;21193;-78
2021/01/30 06:08:22;;;;;;;34.10;20.05;;;;;;;-1.37;84.28;99018.99;1646846;85;21650;-77
2021/01/30 06:10:56;;;;;;;38.65;20.88;;;;;;;-1.36;84.27;99030.83;1653263;85;22007;-77
2021/01/30 06:13:26;;;;;;;45.67;24.77;;;;;;;-1.35;84.27;99023.66;1647620;86;21141;-77
2021/01/30 06:15:59;;;;;;;32.80;18.95;;;;;;;-1.32;84.23;99028.74;1649709;85;21142;-77
2021/01/30 06:18:37;;;;;;;31.02;18.73;;;;;;;-1.30;84.28;99037.20;1654085;85;21181;-77
2021/01/30 06:21:19;;;;;;;37.28;22.02;;;;;;;-1.29;84.28;99038.05;1645643;85;21582;-77
2021/01/30 06:24:12;;;;;;;27.25;17.87;;;;;;;-1.28;84.24;99049.89;1652638;85;21238;-77
2021/01/30 06:26:43;;;;;;;32.42;18.55;;;;;;;-1.29;84.30;99047.78;1652452;85;21157;-77
2021/01/30 06:29:30;;;;;;;35.40;19.87;;;;;;;-1.36;84.33;99034.63;1655024;85;21551;-77
2021/01/30 06:32:18;;;;;;;31.82;18.10;;;;;;;-1.26;84.33;99050.75;1653364;85;21327;-77
2021/01/30 06:34:47;;;;;;;28.35;16.48;;;;;;;-1.25;84.34;99056.25;1623114;87;21217;-77
2021/01/30 06:37:18;;;;;;;26.23;15.95;;;;;;;-1.34;84.30;99043.09;1649814;85;21214;-77
2021/01/30 06:39:45;;;;;;;27.82;17.23;;;;;;;-1.27;84.32;99066.39;1621137;86;21209;-77
2021/01/30 06:42:20;;;;;;;29.40;17.30;;;;;;;-1.28;84.29;99073.56;1650396;85;21238;-77
2021/01/30 06:44:47;;;;;;;43.63;24.35;;;;;;;-1.30;84.31;99073.13;1651081;85;21186;-77
2021/01/30 06:47:21;;;;;;;55.38;27.77;;;;;;;-1.32;84.36;99079.45;1663618;84;21223;-77
2021/01/30 06:49:52;;;;;;;54.63;28.57;;;;;;;-1.31;84.38;99077.77;1659186;85;21236;-77
2021/01/30 06:52:31;;;;;;;38.15;21.85;;;;;;;-1.32;84.37;99088.74;1659384;84;21615;-77
2021/01/30 06:55:11;;;;;;;30.43;17.70;;;;;;;-1.34;84.34;99097.19;1637217;86;21244;-77
2021/01/30 06:57:49;;;;;;;22.55;13.58;;;;;;;-1.34;84.49;99097.19;1662715;84;21658;-77
2021/01/30 07:00:23;;;;;;;24.82;15.35;;;;;;;-1.40;84.39;99088.27;1656488;84;21235;-77
2021/01/30 07:03:13;;;;;;;23.80;15.48;;;;;;;-1.33;84.45;99106.91;1658877;86;21677;-77
2021/01/30 07:06:09;;;;;;;27.75;15.88;;;;;;;-1.31;84.44;99106.92;1657701;86;21197;-77
2021/01/30 07:08:59;;;;;;;25.43;15.90;;;;;;;-1.34;84.45;99108.59;1658617;84;21250;-77
2021/01/30 07:11:45;;;;;;;21.75;14.13;;;;;;;-1.31;84.54;99106.50;1662290;84;21202;-77
2021/01/30 07:14:29;;;;;;;20.65;13.10;;;;;;;-1.28;84.51;99110.75;1661334;84;21249;-77
2021/01/30 07:17:25;;;;;;;22.77;14.05;;;;;;;-1.29;84.53;99106.09;1660587;84;22254;-77
2021/01/30 07:20:06;;;;;;;;;;;;;;;-1.28;84.61;99119.63;1666674;84;21538;-77
2021/01/30 07:22:56;;;;;;;66.97;29.18;;;;;;;-1.26;84.62;99130.20;1655105;84;20265;-77
2021/01/30 07:25:30;;;;;;;42.05;20.52;;;;;;;-1.23;84.62;99131.91;1657736;84;21135;-77
2021/01/30 07:28:11;;;;;;;51.02;27.52;;;;;;;-1.22;84.59;99137.42;1663455;85;21631;-77
2021/01/30 07:31:04;;;;;;;25.70;14.53;;;;;;;-1.22;84.59;99147.14;1618992;84;21743;-77
2021/01/30 07:33:50;;;;;;;22.55;13.35;;;;;;;-1.19;84.62;99147.59;1660198;84;21245;-76
2021/01/30 07:36:28;;;;;;;;;;;;;;;-1.18;84.55;99156.47;1656503;85;21193;-76
2021/01/30 07:39:06;;;;;;;16.17;11.33;;;;;;;-1.16;84.60;99159.87;1658646;85;20298;-76
2021/01/30 07:41:48;;;;;;;16.17;11.48;;;;;;;-1.17;84.68;99158.59;1659778;84;21206;-77
2021/01/30 07:44:25;;;;;;;14.35;11.05;;;;;;;-1.13;84.62;99161.58;1671661;84;21205;-77
2021/01/30 07:46:59;;;;;;;15.28;10.20;;;;;;;-1.07;84.74;99166.28;1669167;85;22394;-76
2021/01/30 07:49:28;;;;;;;14.68;10.03;;;;;;;-1.02;84.71;99165.02;1652173;84;21207;-79
2021/01/30 07:52:13;;;;;;;14.65;10.63;;;;;;;-1.01;84.56;99169.25;1647756;85;38522;-75
2021/01/30 07:54:47;;;;;;;17.23;10.85;;;;;;;-0.99;84.61;99171.38;1629723;85;21211;-75
2021/01/30 07:57:37;;;;;;;19.60;12.40;;;;;;;-0.95;84.56;99174.78;1667156;84;22129;-73
2021/01/30 08:00:30;;;;;;;363.10;30.40;;;;;;;-0.92;84.60;99166.77;1669214;84;21209;-73
2021/01/30 08:03:29;;;;;;;40.67;13.10;;;;;;;-0.83;84.75;99183.33;1665715;85;21198;-73
2021/01/30 08:06:16;;;;;;;20.23;12.43;;;;;;;-0.81;84.61;99185.45;1679732;82;21653;-73
2021/01/30 08:09:03;;;;;;;19.75;11.90;;;;;;;-0.79;84.62;99194.35;1686692;83;21215;-73
2021/01/30 08:11:34;;;;;;;20.55;12.58;;;;;;;-0.76;84.63;99191.84;1657090;84;21384;-73
2021/01/30 08:14:25;;;;;;;19.82;13.00;;;;;;;-0.73;84.60;99193.13;1664222;85;21243;-73
2021/01/30 08:17:06;;;;;;;30.97;17.07;;;;;;;-0.69;84.67;99198.23;1661264;84;22073;-73
2021/01/30 08:19:49;;;;;;;23.52;13.35;;;;;;;-0.65;84.48;99198.25;1670321;84;21192;-73
2021/01/30 08:22:43;;;;;;;22.35;13.65;;;;;;;-0.63;84.59;99202.91;1638642;85;21279;-73
2021/01/30 08:25:35;;;;;;;23.30;13.28;;;;;;;-0.62;84.46;99201.66;1682709;83;21251;-73
2021/01/30 08:28:27;;;;;;;25.48;14.63;;;;;;;-0.65;84.49;99204.17;1686608;83;22343;-74
2021/01/30 08:30:55;;;;;;;21.77;11.85;;;;;;;-0.65;84.47;99209.25;1708829;82;21185;-73
2021/01/30 08:33:22;;;;;;;22.37;13.78;;;;;;;-0.68;84.53;99216.42;1708897;82;21330;-79
2021/01/30 08:35:53;;;;;;;26.30;16.32;;;;;;;-0.71;84.46;99221.48;1706044;82;21100;-77
2021/01/30 08:38:24;;;;;;;29.20;16.73;;;;;;;-0.71;84.50;99224.44;1693053;82;21258;-77
2021/01/30 08:41:01;;;;;;;20.43;12.15;;;;;;;-0.70;84.53;99229.52;1698518;82;21123;-77
2021/01/30 08:43:43;;;;;;;20.30;12.30;;;;;;;-0.65;84.62;99223.63;1680519;83;21128;-76
2021/01/30 08:46:26;;;;;;;18.30;12.23;;;;;;;-0.62;84.66;99224.50;1695524;82;21162;-76
2021/01/30 08:49:19;;;;;;;19.27;12.05;;;;;;;-0.62;84.47;99232.53;1705027;82;21115;-74
2021/01/30 08:51:51;;;;;;;15.60;10.18;;;;;;;-0.57;84.70;99233.42;1710177;82;21399;-73
2021/01/30 08:54:38;;;;;;;13.20;9.78;;;;;;;-0.48;84.72;99235.98;1688579;82;21190;-73
2021/01/30 08:57:09;;;;;;;18.20;10.82;;;;;;;-0.40;84.69;99241.53;1710033;82;21665;-73
2021/01/30 08:59:51;;;;;;;14.45;10.32;;;;;;;-0.38;84.60;99250.44;1703335;82;21219;-73
2021/01/30 09:02:35;;;;;;;14.25;10.40;;;;;;;-0.33;84.72;99252.58;1710610;82;21199;-74
2021/01/30 09:05:21;;;;;;;16.35;10.55;;;;;;;-0.28;84.65;99258.53;1709931;82;21194;-74
2021/01/30 09:07:55;;;;;;;15.65;10.13;;;;;;;-0.25;84.67;99263.63;1710916;82;21182;-73
2021/01/30 09:10:33;;;;;;;14.05;9.68;;;;;;;-0.25;84.64;99261.52;1711111;82;21183;-73
2021/01/30 09:13:11;;;;;;;19.30;10.63;;;;;;;-0.25;84.65;99267.86;1711304;82;21211;-73
2021/01/30 09:15:48;;;;;;;12.23;8.65;;;;;;;-0.19;84.77;99263.67;1709371;82;21186;-73
2021/01/30 09:18:35;;;;;;;14.68;9.33;;;;;;;-0.12;84.74;99265.83;1709770;82;21243;-73
2021/01/30 09:21:22;;;;;;;10.05;8.05;;;;;;;-0.04;84.82;99260.36;1710920;83;21230;-73
2021/01/30 09:24:05;;;;;;;10.28;7.80;;;;;;;0.08;84.85;99269.70;1715060;82;21205;-73
2021/01/30 09:27:14;;;;;;;9.83;8.08;;;;;;;0.07;84.62;99270.55;1701502;82;21746;-73
2021/01/30 09:29:44;;;;;;;13.25;8.60;;;;;;;0.07;84.68;99271.81;1696388;82;21182;-74
2021/01/30 09:32:28;;;;;;;12.07;8.63;;;;;;;0.07;84.74;99276.89;1714558;82;21216;-74
2021/01/30 09:35:08;;;;;;;11.73;8.05;;;;;;;0.09;84.78;99277.33;1715618;82;21233;-73
2021/01/30 09:37:45;;;;;;;10.03;7.55;;;;;;;0.13;84.82;99282.86;1645138;84;21679;-73
2021/01/30 09:40:29;;;;;;;13.43;8.38;;;;;;;0.19;84.85;99285.42;1647565;85;21235;-73
2021/01/30 09:43:10;;;;;;;11.12;8.53;;;;;;;0.17;84.60;99283.30;1656767;85;21652;-73
2021/01/30 09:45:39;;;;;;;10.60;6.90;;;;;;;0.18;84.67;99286.69;1626188;86;21157;-73
2021/01/30 09:48:11;;;;;;;9.55;7.53;;;;;;;0.25;84.76;99285.45;1627654;85;21228;-73
2021/01/30 09:50:43;;;;;;;10.58;7.67;;;;;;;0.24;84.53;99288.84;1649903;85;21211;-73
2021/01/30 09:53:13;;;;;;;10.03;6.55;;;;;;;0.22;84.57;99287.98;1647033;85;21174;-73
2021/01/30 09:55:41;;;;;;;10.72;7.85;;;;;;;0.24;84.63;99296.88;1646582;85;21215;-74
2021/01/30 09:58:18;;;;;;;13.62;7.83;;;;;;;0.22;84.61;99304.92;1637500;85;21591;-74
2021/01/30 10:00:45;;;;;;;12.50;7.00;;;;;;;0.17;84.56;99304.05;1644999;85;21207;-74
2021/01/30 10:03:26;;;;;;;7.62;6.78;;;;;;;0.14;84.74;99309.13;1654343;85;21178;-74
2021/01/30 10:05:53;;;;;;;7.70;5.95;;;;;;;0.15;84.74;99314.21;1647341;86;21258;-74
2021/01/30 10:08:28;;;;;;;8.10;6.50;;;;;;;0.18;84.75;99312.11;1650369;86;21124;-74
2021/01/30 10:11:14;;;;;;;10.43;7.10;;;;;;;0.25;84.89;99318.92;1644716;85;21168;-74
2021/01/30 10:13:44;;;;;;;7.30;5.90;;;;;;;0.32;84.87;99318.95;1650094;85;21104;-74
2021/01/30 10:16:16;;;;;;;11.03;6.97;;;;;;;0.40;84.89;99322.80;1651794;85;21102;-74
2021/01/30 10:18:47;;;;;;;5.83;4.87;;;;;;;0.47;84.80;99319.86;1643544;85;21575;-74
2021/01/30 10:21:14;;;;;;;9.80;5.95;;;;;;;0.48;84.77;99322.41;1646993;85;21138;-75
2021/01/30 10:23:48;;;;;;;19.62;11.45;;;;;;;0.38;84.60;99323.22;1645122;85;22462;-75
2021/01/30 10:26:21;;;;;;;10.53;5.83;;;;;;;0.27;84.63;99324.44;1647035;85;21159;-74
2021/01/30 10:29:04;;;;;;;6.95;5.12;;;;;;;0.24;84.64;99326.97;1644811;85;21139;-74
2021/01/30 10:31:45;;;;;;;6.28;5.08;;;;;;;0.18;84.60;99333.30;1631115;86;21103;-74
2021/01/30 10:34:22;;;;;;;5.50;3.85;;;;;;;0.21;84.67;99328.64;1635527;86;21118;-74
2021/01/30 10:37:18;;;;;;;6.33;3.95;;;;;;;0.26;84.74;99336.72;1647679;85;21730;-74
2021/01/30 10:40:01;;;;;;;4.20;3.37;;;;;;;0.38;84.69;99338.47;1642309;85;21198;-76
2021/01/30 10:42:31;;;;;;;2.50;2.30;;;;;;;0.45;84.57;99348.25;1646402;85;21191;-76
2021/01/30 10:45:15;;;;;;;6.10;4.35;;;;;;;0.46;84.33;99347.41;1637575;85;21143;-76
2021/01/30 10:47:43;;;;;;;4.00;3.58;;;;;;;0.40;84.29;99344.41;1634134;85;21217;-76
2021/01/30 10:50:23;;;;;;;5.05;3.47;;;;;;;0.39;84.33;99353.30;1646754;84;21182;-76
2021/01/30 10:52:50;;;;;;;3.90;3.50;;;;;;;0.40;84.33;99352.05;1642417;85;21174;-74
2021/01/30 10:55:36;;;;;;;4.72;3.98;;;;;;;0.38;84.20;99349.91;1648323;85;25847;-74
2021/01/30 10:58:28;;;;;;;9.58;6.10;;;;;;;0.43;84.40;99352.05;1641199;86;21237;-75
2021/01/30 11:01:05;;;;;;;4.28;3.35;;;;;;;0.47;84.27;99351.65;1646195;85;21250;-75
2021/01/30 11:03:46;;;;;;;7.20;4.35;;;;;;;0.60;84.40;99347.86;1634525;85;21254;-74
2021/01/30 11:06:46;;;;;;;5.62;3.70;;;;;;;0.58;83.99;99351.23;1646537;85;21198;-77
2021/01/30 11:09:23;;;;;;;5.05;4.12;;;;;;;0.56;84.20;99356.74;1639053;85;21174;-77
2021/01/30 11:11:53;;;;;;;6.17;4.53;;;;;;;0.55;84.13;99359.70;1640543;85;21207;-77
2021/01/30 11:14:32;;;;;;;4.55;3.83;;;;;;;0.49;84.02;99358.44;1646174;85;21202;-77
2021/01/30 11:17:01;;;;;;;4.95;4.08;;;;;;;0.43;83.97;99363.92;1634687;85;21268;-77
2021/01/30 11:19:33;;;;;;;4.30;3.90;;;;;;;0.38;84.03;99359.23;1639127;85;21198;-77
2021/01/30 11:22:06;;;;;;;3.75;3.33;;;;;;;0.37;84.21;99366.02;1639535;85;21624;-75
2021/01/30 11:24:46;;;;;;;5.72;4.03;;;;;;;0.36;84.15;99364.73;1645243;85;21291;-77
2021/01/30 11:27:12;;;;;;;4.35;3.95;;;;;;;0.30;84.01;99367.67;1632713;85;21528;-77
2021/01/30 11:29:43;;;;;;;7.85;3.95;;;;;;;0.26;84.17;99367.23;1616079;85;21233;-77
2021/01/30 11:32:15;;;;;;;5.42;4.28;;;;;;;0.25;84.22;99366.80;1623627;86;21645;-77
2021/01/30 11:34:42;;;;;;;4.70;3.67;;;;;;;0.19;84.07;99366.77;1619318;86;21193;-77
2021/01/30 11:37:09;;;;;;;4.75;3.52;;;;;;;0.16;84.18;99360.81;1621211;86;21162;-77
2021/01/30 11:39:37;;;;;;;5.12;4.55;;;;;;;0.13;84.09;99370.54;1627008;86;21495;-78
2021/01/30 11:42:05;;;;;;;4.10;3.10;;;;;;;0.08;84.04;99366.27;1628058;86;21195;-77
2021/01/30 11:44:31;;;;;;;6.17;2.45;;;;;;;0.06;83.96;99355.24;1620942;86;21162;-77
2021/01/30 11:46:57;;;;;;;3.02;2.50;;;;;;;0.01;83.60;99364.11;1626607;86;21134;-74
2021/01/30 11:49:24;;;;;;;2.42;2.00;;;;;;;-0.05;83.66;99366.64;1629656;86;21933;-73
2021/01/30 11:51:50;;;;;;;3.10;1.85;;;;;;;-0.06;83.72;99369.61;1627325;86;21158;-74
2021/01/30 11:54:17;;;;;;;4.92;2.72;;;;;;;-0.11;83.55;99379.30;1623086;86;21630;-74
2021/01/30 11:56:44;;;;;;;2.55;2.10;;;;;;;-0.15;83.56;99375.04;1624360;86;21450;-73
2021/01/30 11:59:12;;;;;;;3.17;1.92;;;;;;;-0.23;83.52;99375.41;1620643;86;21166;-74
2021/01/30 12:01:39;;;;;;;1.75;1.62;;;;;;;-0.26;83.49;99378.77;1623644;86;21134;-74
2021/01/30 12:04:07;;;;;;;2.67;2.12;;;;;;;-0.29;83.36;99382.98;1621480;86;21133;-74